sensor_id;sensor_type;location;lat;lon;timestamp;P1;durP1;ratioP1;P2;durP2;ratioP2
73593;SDS011;64760;53.404;23.498;2022-12-05T00:03:50;16.05;;;6.88;;
73593;SDS011;64760;53.404;23.498;2022-12-05T00:06:18;16.77;;;6.88;;
73593;SDS011;64760;53.404;23.498;2022-12-05T00:11:15;6.70;;;3.55;;
73593;SDS011;64760;53.404;23.498;2022-12-05T00:13:43;14.95;;;6.90;;
73593;SDS011;64760;53.404;23.498;2022-12-05T00:16:11;12.82;;;6.72;;
73593;SDS011;64760;53.404;23.498;2022-12-05T00:18:40;9.50;;;5.18;;
73593;SDS011;64760;53.404;23.498;2022-12-05T00:21:06;12.05;;;5.88;;
73593;SDS011;64760;53.404;23.498;2022-12-05T00:23:40;10.23;;;4.45;;
73593;SDS011;64760;53.404;23.498;2022-12-05T00:26:06;13.63;;;6.32;;
73593;SDS011;64760;53.404;23.498;2022-12-05T00:28:33;10.00;;;4.97;;
73593;SDS011;64760;53.404;23.498;2022-12-05T00:31:01;17.33;;;6.70;;
73593;SDS011;64760;53.404;23.498;2022-12-05T00:36:27;12.15;;;4.50;;
73593;SDS011;64760;53.404;23.498;2022-12-05T00:38:57;15.50;;;6.72;;
73593;SDS011;64760;53.404;23.498;2022-12-05T00:41:25;11.07;;;4.43;;
73593;SDS011;64760;53.404;23.498;2022-12-05T00:43:53;11.20;;;4.53;;
73593;SDS011;64760;53.404;23.498;2022-12-05T00:46:25;14.75;;;6.18;;
73593;SDS011;64760;53.404;23.498;2022-12-05T00:48:53;7.22;;;3.70;;
73593;SDS011;64760;53.404;23.498;2022-12-05T00:53:49;6.28;;;2.40;;
73593;SDS011;64760;53.404;23.498;2022-12-05T00:56:16;11.55;;;6.32;;
73593;SDS011;64760;53.404;23.498;2022-12-05T00:58:45;7.60;;;4.68;;
73593;SDS011;64760;53.404;23.498;2022-12-05T01:03:53;7.97;;;3.58;;
73593;SDS011;64760;53.404;23.498;2022-12-05T01:06:21;7.20;;;3.67;;
73593;SDS011;64760;53.404;23.498;2022-12-05T01:08:48;11.90;;;4.28;;
73593;SDS011;64760;53.404;23.498;2022-12-05T01:11:15;15.23;;;5.95;;
73593;SDS011;64760;53.404;23.498;2022-12-05T01:16:16;13.18;;;4.75;;
73593;SDS011;64760;53.404;23.498;2022-12-05T01:18:45;7.50;;;2.88;;
73593;SDS011;64760;53.404;23.498;2022-12-05T01:21:11;10.40;;;4.72;;
73593;SDS011;64760;53.404;23.498;2022-12-05T01:23:38;9.95;;;5.05;;
73593;SDS011;64760;53.404;23.498;2022-12-05T01:29:29;8.90;;;4.57;;
73593;SDS011;64760;53.404;23.498;2022-12-05T01:31:55;7.15;;;3.38;;
73593;SDS011;64760;53.404;23.498;2022-12-05T01:34:21;13.10;;;5.55;;
73593;SDS011;64760;53.404;23.498;2022-12-05T01:36:48;10.48;;;4.50;;
73593;SDS011;64760;53.404;23.498;2022-12-05T01:39:14;9.02;;;5.15;;
73593;SDS011;64760;53.404;23.498;2022-12-05T01:41:43;11.95;;;4.68;;
73593;SDS011;64760;53.404;23.498;2022-12-05T01:46:38;9.15;;;4.25;;
73593;SDS011;64760;53.404;23.498;2022-12-05T01:49:10;10.02;;;4.43;;
73593;SDS011;64760;53.404;23.498;2022-12-05T01:54:27;5.63;;;2.08;;
73593;SDS011;64760;53.404;23.498;2022-12-05T01:56:55;7.55;;;4.22;;
73593;SDS011;64760;53.404;23.498;2022-12-05T01:59:26;7.25;;;4.50;;
73593;SDS011;64760;53.404;23.498;2022-12-05T02:01:57;14.07;;;6.68;;
73593;SDS011;64760;53.404;23.498;2022-12-05T02:04:24;8.13;;;4.22;;
73593;SDS011;64760;53.404;23.498;2022-12-05T02:06:52;8.95;;;4.30;;
73593;SDS011;64760;53.404;23.498;2022-12-05T02:09:20;7.78;;;3.70;;
73593;SDS011;64760;53.404;23.498;2022-12-05T02:11:55;10.68;;;5.63;;
73593;SDS011;64760;53.404;23.498;2022-12-05T02:14:31;6.95;;;4.00;;
73593;SDS011;64760;53.404;23.498;2022-12-05T02:34:34;5.57;;;2.83;;
73593;SDS011;64760;53.404;23.498;2022-12-05T02:37:27;7.45;;;3.50;;
73593;SDS011;64760;53.404;23.498;2022-12-05T02:45:23;8.23;;;3.97;;
73593;SDS011;64760;53.404;23.498;2022-12-05T02:47:53;5.10;;;2.65;;
73593;SDS011;64760;53.404;23.498;2022-12-05T02:50:21;9.90;;;4.55;;
73593;SDS011;64760;53.404;23.498;2022-12-05T02:52:51;6.00;;;3.47;;
73593;SDS011;64760;53.404;23.498;2022-12-05T02:55:22;11.23;;;3.60;;
73593;SDS011;64760;53.404;23.498;2022-12-05T02:57:53;9.35;;;4.05;;
73593;SDS011;64760;53.404;23.498;2022-12-05T03:00:23;10.50;;;5.13;;
73593;SDS011;64760;53.404;23.498;2022-12-05T03:02:51;8.05;;;3.20;;
73593;SDS011;64760;53.404;23.498;2022-12-05T03:05:26;11.02;;;5.53;;
73593;SDS011;64760;53.404;23.498;2022-12-05T03:08:02;13.68;;;4.95;;
73593;SDS011;64760;53.404;23.498;2022-12-05T03:10:31;11.30;;;5.63;;
73593;SDS011;64760;53.404;23.498;2022-12-05T03:13:01;10.35;;;4.35;;
73593;SDS011;64760;53.404;23.498;2022-12-05T03:15:35;11.85;;;4.55;;
73593;SDS011;64760;53.404;23.498;2022-12-05T03:18:09;6.70;;;3.28;;
73593;SDS011;64760;53.404;23.498;2022-12-05T03:20:59;4.18;;;2.17;;
73593;SDS011;64760;53.404;23.498;2022-12-05T03:31:24;10.63;;;4.50;;
73593;SDS011;64760;53.404;23.498;2022-12-05T03:33:59;6.78;;;2.83;;
73593;SDS011;64760;53.404;23.498;2022-12-05T03:36:31;6.97;;;3.08;;
73593;SDS011;64760;53.404;23.498;2022-12-05T03:42:35;7.10;;;3.83;;
73593;SDS011;64760;53.404;23.498;2022-12-05T03:45:07;7.78;;;3.33;;
73593;SDS011;64760;53.404;23.498;2022-12-05T03:47:51;5.97;;;3.75;;
73593;SDS011;64760;53.404;23.498;2022-12-05T03:50:28;10.13;;;4.63;;
73593;SDS011;64760;53.404;23.498;2022-12-05T03:56:24;8.73;;;4.55;;
73593;SDS011;64760;53.404;23.498;2022-12-05T03:59:08;8.75;;;2.88;;
73593;SDS011;64760;53.404;23.498;2022-12-05T04:01:41;10.32;;;4.45;;
73593;SDS011;64760;53.404;23.498;2022-12-05T04:04:20;7.82;;;2.28;;
73593;SDS011;64760;53.404;23.498;2022-12-05T04:06:51;3.72;;;2.03;;
73593;SDS011;64760;53.404;23.498;2022-12-05T04:09:22;12.38;;;5.20;;
73593;SDS011;64760;53.404;23.498;2022-12-05T04:12:00;7.38;;;3.05;;
73593;SDS011;64760;53.404;23.498;2022-12-05T04:17:52;10.45;;;4.55;;
73593;SDS011;64760;53.404;23.498;2022-12-05T04:20:22;4.85;;;2.95;;
73593;SDS011;64760;53.404;23.498;2022-12-05T04:23:08;6.63;;;3.40;;
73593;SDS011;64760;53.404;23.498;2022-12-05T04:25:36;8.10;;;4.32;;
73593;SDS011;64760;53.404;23.498;2022-12-05T04:31:07;9.00;;;4.35;;
73593;SDS011;64760;53.404;23.498;2022-12-05T04:36:22;8.55;;;3.83;;
73593;SDS011;64760;53.404;23.498;2022-12-05T04:39:03;9.73;;;3.75;;
73593;SDS011;64760;53.404;23.498;2022-12-05T04:44:43;8.80;;;4.47;;
73593;SDS011;64760;53.404;23.498;2022-12-05T04:47:14;14.32;;;6.22;;
73593;SDS011;64760;53.404;23.498;2022-12-05T04:49:43;12.75;;;4.60;;
73593;SDS011;64760;53.404;23.498;2022-12-05T04:52:10;11.70;;;5.88;;
73593;SDS011;64760;53.404;23.498;2022-12-05T04:54:40;7.22;;;3.47;;
73593;SDS011;64760;53.404;23.498;2022-12-05T04:57:14;9.13;;;4.22;;
73593;SDS011;64760;53.404;23.498;2022-12-05T04:59:50;9.88;;;4.85;;
73593;SDS011;64760;53.404;23.498;2022-12-05T05:02:18;8.73;;;3.85;;
73593;SDS011;64760;53.404;23.498;2022-12-05T05:04:50;9.80;;;4.43;;
73593;SDS011;64760;53.404;23.498;2022-12-05T05:07:19;8.65;;;3.85;;
73593;SDS011;64760;53.404;23.498;2022-12-05T05:09:45;13.55;;;4.72;;
73593;SDS011;64760;53.404;23.498;2022-12-05T05:12:12;4.53;;;2.53;;
73593;SDS011;64760;53.404;23.498;2022-12-05T05:14:38;10.38;;;4.35;;
73593;SDS011;64760;53.404;23.498;2022-12-05T05:17:05;9.57;;;4.78;;
73593;SDS011;64760;53.404;23.498;2022-12-05T05:19:31;9.70;;;4.60;;
73593;SDS011;64760;53.404;23.498;2022-12-05T05:21:57;10.13;;;4.57;;
73593;SDS011;64760;53.404;23.498;2022-12-05T05:24:24;11.98;;;4.55;;
73593;SDS011;64760;53.404;23.498;2022-12-05T05:26:51;12.35;;;4.32;;
73593;SDS011;64760;53.404;23.498;2022-12-05T05:29:17;7.35;;;3.40;;
73593;SDS011;64760;53.404;23.498;2022-12-05T05:31:44;8.32;;;2.67;;
73593;SDS011;64760;53.404;23.498;2022-12-05T05:34:10;9.07;;;4.45;;
73593;SDS011;64760;53.404;23.498;2022-12-05T05:36:37;13.32;;;6.40;;
73593;SDS011;64760;53.404;23.498;2022-12-05T05:39:09;13.23;;;7.22;;
73593;SDS011;64760;53.404;23.498;2022-12-05T05:41:37;15.35;;;5.47;;
73593;SDS011;64760;53.404;23.498;2022-12-05T05:44:04;15.93;;;5.88;;
73593;SDS011;64760;53.404;23.498;2022-12-05T05:46:32;12.30;;;6.15;;
73593;SDS011;64760;53.404;23.498;2022-12-05T05:49:02;12.23;;;6.88;;
73593;SDS011;64760;53.404;23.498;2022-12-05T05:51:30;10.98;;;4.55;;
73593;SDS011;64760;53.404;23.498;2022-12-05T05:53:57;13.35;;;7.03;;
73593;SDS011;64760;53.404;23.498;2022-12-05T05:56:30;9.32;;;4.07;;
73593;SDS011;64760;53.404;23.498;2022-12-05T05:58:57;9.25;;;4.55;;
73593;SDS011;64760;53.404;23.498;2022-12-05T06:01:25;12.40;;;5.80;;
73593;SDS011;64760;53.404;23.498;2022-12-05T06:03:52;9.70;;;4.75;;
73593;SDS011;64760;53.404;23.498;2022-12-05T06:06:19;8.88;;;4.88;;
73593;SDS011;64760;53.404;23.498;2022-12-05T06:08:45;10.90;;;4.70;;
73593;SDS011;64760;53.404;23.498;2022-12-05T06:11:19;5.03;;;2.08;;
73593;SDS011;64760;53.404;23.498;2022-12-05T06:13:46;12.90;;;5.50;;
73593;SDS011;64760;53.404;23.498;2022-12-05T06:16:14;8.75;;;4.68;;
73593;SDS011;64760;53.404;23.498;2022-12-05T06:18:41;11.55;;;5.05;;
73593;SDS011;64760;53.404;23.498;2022-12-05T06:21:09;10.32;;;5.50;;
73593;SDS011;64760;53.404;23.498;2022-12-05T06:23:36;15.13;;;7.90;;
73593;SDS011;64760;53.404;23.498;2022-12-05T06:26:04;16.08;;;6.28;;
73593;SDS011;64760;53.404;23.498;2022-12-05T06:28:31;8.15;;;4.72;;
73593;SDS011;64760;53.404;23.498;2022-12-05T06:30:57;11.43;;;5.30;;
73593;SDS011;64760;53.404;23.498;2022-12-05T06:33:23;11.38;;;5.25;;
73593;SDS011;64760;53.404;23.498;2022-12-05T06:36:00;9.57;;;4.03;;
73593;SDS011;64760;53.404;23.498;2022-12-05T06:38:30;14.65;;;6.95;;
73593;SDS011;64760;53.404;23.498;2022-12-05T06:40:57;13.85;;;5.13;;
73593;SDS011;64760;53.404;23.498;2022-12-05T06:46:16;6.72;;;3.75;;
73593;SDS011;64760;53.404;23.498;2022-12-05T06:48:42;17.25;;;7.47;;
73593;SDS011;64760;53.404;23.498;2022-12-05T06:51:10;11.25;;;6.38;;
73593;SDS011;64760;53.404;23.498;2022-12-05T06:53:37;8.93;;;3.80;;
73593;SDS011;64760;53.404;23.498;2022-12-05T06:56:05;13.15;;;7.35;;
73593;SDS011;64760;53.404;23.498;2022-12-05T07:00:59;16.30;;;9.98;;
73593;SDS011;64760;53.404;23.498;2022-12-05T07:03:43;17.80;;;5.95;;
73593;SDS011;64760;53.404;23.498;2022-12-05T07:06:09;2.83;;;1.48;;
73593;SDS011;64760;53.404;23.498;2022-12-05T07:08:38;5.90;;;3.90;;
73593;SDS011;64760;53.404;23.498;2022-12-05T07:13:30;9.40;;;5.20;;
73593;SDS011;64760;53.404;23.498;2022-12-05T07:15:56;9.75;;;5.82;;
73593;SDS011;64760;53.404;23.498;2022-12-05T07:18:23;9.77;;;5.63;;
73593;SDS011;64760;53.404;23.498;2022-12-05T07:20:57;14.00;;;6.40;;
73593;SDS011;64760;53.404;23.498;2022-12-05T07:23:25;13.00;;;7.03;;
73593;SDS011;64760;53.404;23.498;2022-12-05T07:25:52;14.10;;;4.18;;
73593;SDS011;64760;53.404;23.498;2022-12-05T07:28:19;7.60;;;3.85;;
73593;SDS011;64760;53.404;23.498;2022-12-05T07:30:45;7.38;;;3.95;;
73593;SDS011;64760;53.404;23.498;2022-12-05T07:33:11;7.63;;;4.72;;
73593;SDS011;64760;53.404;23.498;2022-12-05T07:35:38;7.90;;;4.78;;
73593;SDS011;64760;53.404;23.498;2022-12-05T07:38:04;11.68;;;6.05;;
73593;SDS011;64760;53.404;23.498;2022-12-05T07:40:30;9.80;;;5.15;;
73593;SDS011;64760;53.404;23.498;2022-12-05T07:42:57;5.55;;;2.92;;
73593;SDS011;64760;53.404;23.498;2022-12-05T07:45:24;12.15;;;6.05;;
73593;SDS011;64760;53.404;23.498;2022-12-05T07:47:50;11.32;;;4.60;;
73593;SDS011;64760;53.404;23.498;2022-12-05T07:50:16;6.90;;;3.38;;
73593;SDS011;64760;53.404;23.498;2022-12-05T07:52:42;8.60;;;4.80;;
73593;SDS011;64760;53.404;23.498;2022-12-05T07:55:09;8.95;;;5.20;;
73593;SDS011;64760;53.404;23.498;2022-12-05T07:57:35;13.40;;;4.82;;
73593;SDS011;64760;53.404;23.498;2022-12-05T08:00:02;10.35;;;3.80;;
73593;SDS011;64760;53.404;23.498;2022-12-05T08:02:38;7.85;;;4.50;;
73593;SDS011;64760;53.404;23.498;2022-12-05T08:05:04;10.27;;;5.50;;
73593;SDS011;64760;53.404;23.498;2022-12-05T08:07:30;7.05;;;4.00;;
73593;SDS011;64760;53.404;23.498;2022-12-05T08:09:57;10.60;;;5.88;;
73593;SDS011;64760;53.404;23.498;2022-12-05T08:12:23;9.43;;;4.93;;
73593;SDS011;64760;53.404;23.498;2022-12-05T08:14:49;15.55;;;6.15;;
73593;SDS011;64760;53.404;23.498;2022-12-05T08:17:15;17.25;;;7.43;;
73593;SDS011;64760;53.404;23.498;2022-12-05T08:19:43;17.77;;;8.20;;
73593;SDS011;64760;53.404;23.498;2022-12-05T08:22:09;9.50;;;5.03;;
73593;SDS011;64760;53.404;23.498;2022-12-05T08:24:36;12.98;;;6.72;;
73593;SDS011;64760;53.404;23.498;2022-12-05T08:27:03;10.23;;;5.82;;
73593;SDS011;64760;53.404;23.498;2022-12-05T08:29:29;10.13;;;5.07;;
73593;SDS011;64760;53.404;23.498;2022-12-05T08:31:56;8.98;;;4.60;;
73593;SDS011;64760;53.404;23.498;2022-12-05T08:34:22;11.80;;;5.47;;
73593;SDS011;64760;53.404;23.498;2022-12-05T08:36:49;8.27;;;4.65;;
73593;SDS011;64760;53.404;23.498;2022-12-05T08:39:22;4.85;;;2.83;;
73593;SDS011;64760;53.404;23.498;2022-12-05T08:41:49;8.60;;;4.13;;
73593;SDS011;64760;53.404;23.498;2022-12-05T08:44:15;6.55;;;3.88;;
73593;SDS011;64760;53.404;23.498;2022-12-05T08:46:44;7.55;;;3.42;;
73593;SDS011;64760;53.404;23.498;2022-12-05T08:49:14;7.88;;;4.35;;
73593;SDS011;64760;53.404;23.498;2022-12-05T08:51:42;14.68;;;4.97;;
73593;SDS011;64760;53.404;23.498;2022-12-05T08:54:08;13.50;;;6.45;;
73593;SDS011;64760;53.404;23.498;2022-12-05T08:56:35;13.43;;;7.13;;
73593;SDS011;64760;53.404;23.498;2022-12-05T09:01:30;4.65;;;2.90;;
73593;SDS011;64760;53.404;23.498;2022-12-05T09:03:58;3.97;;;2.75;;
73593;SDS011;64760;53.404;23.498;2022-12-05T09:06:26;10.50;;;4.60;;
73593;SDS011;64760;53.404;23.498;2022-12-05T09:08:57;5.78;;;3.33;;
73593;SDS011;64760;53.404;23.498;2022-12-05T09:11:28;8.50;;;4.60;;
73593;SDS011;64760;53.404;23.498;2022-12-05T09:13:57;7.25;;;4.18;;
73593;SDS011;64760;53.404;23.498;2022-12-05T09:16:28;10.52;;;4.53;;
73593;SDS011;64760;53.404;23.498;2022-12-05T09:18:57;9.00;;;4.28;;
73593;SDS011;64760;53.404;23.498;2022-12-05T09:21:25;8.80;;;5.20;;
73593;SDS011;64760;53.404;23.498;2022-12-05T09:23:53;10.43;;;5.32;;
73593;SDS011;64760;53.404;23.498;2022-12-05T09:29:55;10.55;;;6.00;;
73593;SDS011;64760;53.404;23.498;2022-12-05T09:32:21;17.20;;;9.68;;
73593;SDS011;64760;53.404;23.498;2022-12-05T09:34:48;16.42;;;6.68;;
73593;SDS011;64760;53.404;23.498;2022-12-05T09:37:14;15.07;;;5.20;;
73593;SDS011;64760;53.404;23.498;2022-12-05T09:39:44;14.27;;;7.25;;
73593;SDS011;64760;53.404;23.498;2022-12-05T09:42:19;14.68;;;6.07;;
73593;SDS011;64760;53.404;23.498;2022-12-05T09:55:26;17.15;;;7.15;;
73593;SDS011;64760;53.404;23.498;2022-12-05T10:06:48;6.32;;;3.60;;
73593;SDS011;64760;53.404;23.498;2022-12-05T10:09:53;9.95;;;4.00;;
73593;SDS011;64760;53.404;23.498;2022-12-05T10:26:11;7.43;;;4.00;;
73593;SDS011;64760;53.404;23.498;2022-12-05T10:28:52;11.57;;;4.35;;
73593;SDS011;64760;53.404;23.498;2022-12-05T10:31:42;9.48;;;5.07;;
73593;SDS011;64760;53.404;23.498;2022-12-05T10:34:22;9.93;;;4.40;;
73593;SDS011;64760;53.404;23.498;2022-12-05T10:36:59;6.65;;;3.08;;
73593;SDS011;64760;53.404;23.498;2022-12-05T10:39:35;7.50;;;3.92;;
73593;SDS011;64760;53.404;23.498;2022-12-05T10:42:03;10.90;;;4.88;;
73593;SDS011;64760;53.404;23.498;2022-12-05T10:44:30;9.48;;;3.47;;
73593;SDS011;64760;53.404;23.498;2022-12-05T10:49:24;8.13;;;3.97;;
73593;SDS011;64760;53.404;23.498;2022-12-05T10:51:52;9.80;;;4.57;;
73593;SDS011;64760;53.404;23.498;2022-12-05T10:54:19;11.88;;;4.47;;
73593;SDS011;64760;53.404;23.498;2022-12-05T10:56:50;9.77;;;5.15;;
73593;SDS011;64760;53.404;23.498;2022-12-05T10:59:21;10.52;;;4.35;;
73593;SDS011;64760;53.404;23.498;2022-12-05T11:01:52;9.82;;;5.60;;
73593;SDS011;64760;53.404;23.498;2022-12-05T11:06:49;10.05;;;4.05;;
73593;SDS011;64760;53.404;23.498;2022-12-05T11:09:22;14.43;;;6.38;;
73593;SDS011;64760;53.404;23.498;2022-12-05T11:15:26;19.50;;;9.98;;
73593;SDS011;64760;53.404;23.498;2022-12-05T11:17:41;16.27;;;7.47;;
73593;SDS011;64760;53.404;23.498;2022-12-05T11:22:41;21.25;;;9.15;;
73593;SDS011;64760;53.404;23.498;2022-12-05T11:27:53;11.75;;;6.28;;
73593;SDS011;64760;53.404;23.498;2022-12-05T11:30:21;8.18;;;4.00;;
73593;SDS011;64760;53.404;23.498;2022-12-05T11:35:43;8.55;;;4.20;;
73593;SDS011;64760;53.404;23.498;2022-12-05T11:38:11;7.00;;;3.63;;
73593;SDS011;64760;53.404;23.498;2022-12-05T11:51:38;9.57;;;4.80;;
73593;SDS011;64760;53.404;23.498;2022-12-05T11:56:38;8.52;;;4.18;;
73593;SDS011;64760;53.404;23.498;2022-12-05T12:04:53;11.50;;;6.00;;
73593;SDS011;64760;53.404;23.498;2022-12-05T12:10:48;11.07;;;5.10;;
73593;SDS011;64760;53.404;23.498;2022-12-05T12:15:52;18.63;;;9.05;;
73593;SDS011;64760;53.404;23.498;2022-12-05T12:21:27;16.15;;;7.47;;
73593;SDS011;64760;53.404;23.498;2022-12-05T12:24:12;23.25;;;9.52;;
73593;SDS011;64760;53.404;23.498;2022-12-05T12:30:02;16.98;;;8.18;;
73593;SDS011;64760;53.404;23.498;2022-12-05T12:32:51;7.80;;;4.20;;
73593;SDS011;64760;53.404;23.498;2022-12-05T12:35:55;18.92;;;7.45;;
73593;SDS011;64760;53.404;23.498;2022-12-05T12:41:32;35.55;;;12.50;;
73593;SDS011;64760;53.404;23.498;2022-12-05T13:00:47;13.45;;;7.80;;
73593;SDS011;64760;53.404;23.498;2022-12-05T13:03:41;13.15;;;5.80;;
73593;SDS011;64760;53.404;23.498;2022-12-05T13:06:13;13.10;;;6.45;;
73593;SDS011;64760;53.404;23.498;2022-12-05T13:09:01;28.98;;;15.20;;
73593;SDS011;64760;53.404;23.498;2022-12-05T13:11:53;32.33;;;13.13;;
73593;SDS011;64760;53.404;23.498;2022-12-05T13:14:30;13.35;;;6.18;;
73593;SDS011;64760;53.404;23.498;2022-12-05T13:17:06;10.63;;;4.72;;
73593;SDS011;64760;53.404;23.498;2022-12-05T13:19:47;12.38;;;6.35;;
73593;SDS011;64760;53.404;23.498;2022-12-05T13:22:15;11.48;;;6.03;;
73593;SDS011;64760;53.404;23.498;2022-12-05T13:24:44;13.93;;;7.05;;
73593;SDS011;64760;53.404;23.498;2022-12-05T13:27:14;20.50;;;9.98;;
73593;SDS011;64760;53.404;23.498;2022-12-05T13:29:57;21.92;;;10.88;;
73593;SDS011;64760;53.404;23.498;2022-12-05T13:34:57;37.33;;;15.98;;
73593;SDS011;64760;53.404;23.498;2022-12-05T13:37:29;29.10;;;12.15;;
73593;SDS011;64760;53.404;23.498;2022-12-05T13:40:23;32.83;;;16.83;;
73593;SDS011;64760;53.404;23.498;2022-12-05T13:43:09;49.13;;;21.67;;
73593;SDS011;64760;53.404;23.498;2022-12-05T13:45:39;27.88;;;13.10;;
73593;SDS011;64760;53.404;23.498;2022-12-05T13:55:54;20.40;;;8.52;;
73593;SDS011;64760;53.404;23.498;2022-12-05T14:00:50;25.50;;;10.32;;
73593;SDS011;64760;53.404;23.498;2022-12-05T14:13:41;19.75;;;9.43;;
73593;SDS011;64760;53.404;23.498;2022-12-05T14:18:54;32.80;;;14.10;;
73593;SDS011;64760;53.404;23.498;2022-12-05T14:21:37;30.48;;;12.52;;
73593;SDS011;64760;53.404;23.498;2022-12-05T14:29:47;24.05;;;8.35;;
73593;SDS011;64760;53.404;23.498;2022-12-05T14:32:39;36.80;;;15.57;;
73593;SDS011;64760;53.404;23.498;2022-12-05T14:35:11;27.73;;;13.25;;
73593;SDS011;64760;53.404;23.498;2022-12-05T14:37:41;33.90;;;16.05;;
73593;SDS011;64760;53.404;23.498;2022-12-05T14:42:56;26.77;;;10.57;;
73593;SDS011;64760;53.404;23.498;2022-12-05T14:45:37;20.92;;;9.98;;
73593;SDS011;64760;53.404;23.498;2022-12-05T14:50:43;22.63;;;10.90;;
73593;SDS011;64760;53.404;23.498;2022-12-05T15:01:22;39.00;;;16.60;;
73593;SDS011;64760;53.404;23.498;2022-12-05T15:06:25;30.50;;;11.23;;
73593;SDS011;64760;53.404;23.498;2022-12-05T15:08:53;43.13;;;18.83;;
73593;SDS011;64760;53.404;23.498;2022-12-05T15:11:22;38.13;;;15.60;;
73593;SDS011;64760;53.404;23.498;2022-12-05T15:13:54;33.50;;;13.95;;
73593;SDS011;64760;53.404;23.498;2022-12-05T15:16:30;43.53;;;16.90;;
73593;SDS011;64760;53.404;23.498;2022-12-05T15:19:02;35.35;;;13.18;;
73593;SDS011;64760;53.404;23.498;2022-12-05T15:21:35;28.55;;;13.82;;
73593;SDS011;64760;53.404;23.498;2022-12-05T15:24:12;40.40;;;17.02;;
73593;SDS011;64760;53.404;23.498;2022-12-05T15:34:21;26.15;;;11.68;;
73593;SDS011;64760;53.404;23.498;2022-12-05T15:37:13;32.97;;;13.95;;
73593;SDS011;64760;53.404;23.498;2022-12-05T15:40:00;26.02;;;13.30;;
73593;SDS011;64760;53.404;23.498;2022-12-05T15:47:41;17.90;;;10.15;;
73593;SDS011;64760;53.404;23.498;2022-12-05T15:50:12;25.38;;;13.18;;
73593;SDS011;64760;53.404;23.498;2022-12-05T15:53:05;30.40;;;15.20;;
73593;SDS011;64760;53.404;23.498;2022-12-05T16:00:44;30.55;;;16.08;;
73593;SDS011;64760;53.404;23.498;2022-12-05T16:03:16;29.25;;;12.65;;
73593;SDS011;64760;53.404;23.498;2022-12-05T16:05:54;32.33;;;12.90;;
73593;SDS011;64760;53.404;23.498;2022-12-05T16:08:27;31.70;;;14.60;;
73593;SDS011;64760;53.404;23.498;2022-12-05T16:11:10;24.83;;;11.20;;
73593;SDS011;64760;53.404;23.498;2022-12-05T16:13:44;31.65;;;15.05;;
73593;SDS011;64760;53.404;23.498;2022-12-05T16:16:15;30.10;;;14.27;;
73593;SDS011;64760;53.404;23.498;2022-12-05T16:18:47;48.30;;;19.60;;
73593;SDS011;64760;53.404;23.498;2022-12-05T16:21:30;43.42;;;16.75;;
73593;SDS011;64760;53.404;23.498;2022-12-05T16:29:38;54.38;;;22.90;;
73593;SDS011;64760;53.404;23.498;2022-12-05T16:32:22;53.08;;;20.98;;
73593;SDS011;64760;53.404;23.498;2022-12-05T16:34:50;51.95;;;20.15;;
73593;SDS011;64760;53.404;23.498;2022-12-05T16:37:20;49.45;;;19.58;;
73593;SDS011;64760;53.404;23.498;2022-12-05T16:39:50;47.78;;;17.45;;
73593;SDS011;64760;53.404;23.498;2022-12-05T16:42:25;61.17;;;23.10;;
73593;SDS011;64760;53.404;23.498;2022-12-05T16:44:56;61.05;;;26.25;;
73593;SDS011;64760;53.404;23.498;2022-12-05T16:53:17;44.65;;;18.00;;
73593;SDS011;64760;53.404;23.498;2022-12-05T16:55:52;48.72;;;20.20;;
73593;SDS011;64760;53.404;23.498;2022-12-05T16:58:20;50.58;;;22.13;;
73593;SDS011;64760;53.404;23.498;2022-12-05T17:00:51;36.75;;;16.40;;
73593;SDS011;64760;53.404;23.498;2022-12-05T17:03:24;46.30;;;19.23;;
73593;SDS011;64760;53.404;23.498;2022-12-05T17:05:52;39.47;;;17.20;;
73593;SDS011;64760;53.404;23.498;2022-12-05T17:08:18;49.17;;;19.88;;
73593;SDS011;64760;53.404;23.498;2022-12-05T17:10:49;25.88;;;10.43;;
73593;SDS011;64760;53.404;23.498;2022-12-05T17:13:18;31.83;;;14.07;;
73593;SDS011;64760;53.404;23.498;2022-12-05T17:19:39;37.72;;;16.35;;
73593;SDS011;64760;53.404;23.498;2022-12-05T17:24:56;36.60;;;16.45;;
73593;SDS011;64760;53.404;23.498;2022-12-05T17:27:24;22.02;;;9.57;;
73593;SDS011;64760;53.404;23.498;2022-12-05T17:29:51;34.58;;;16.05;;
73593;SDS011;64760;53.404;23.498;2022-12-05T17:32:17;31.13;;;12.80;;
73593;SDS011;64760;53.404;23.498;2022-12-05T17:34:44;37.80;;;16.58;;
73593;SDS011;64760;53.404;23.498;2022-12-05T17:37:10;33.90;;;14.93;;
73593;SDS011;64760;53.404;23.498;2022-12-05T17:39:36;24.45;;;11.40;;
73593;SDS011;64760;53.404;23.498;2022-12-05T17:42:03;28.10;;;13.25;;
73593;SDS011;64760;53.404;23.498;2022-12-05T17:44:29;20.38;;;9.38;;
73593;SDS011;64760;53.404;23.498;2022-12-05T17:46:55;24.80;;;12.52;;
73593;SDS011;64760;53.404;23.498;2022-12-05T17:49:22;22.45;;;11.52;;
73593;SDS011;64760;53.404;23.498;2022-12-05T17:51:48;27.92;;;11.90;;
73593;SDS011;64760;53.404;23.498;2022-12-05T17:54:18;29.10;;;11.52;;
73593;SDS011;64760;53.404;23.498;2022-12-05T17:56:45;31.60;;;13.95;;
73593;SDS011;64760;53.404;23.498;2022-12-05T17:59:11;35.80;;;13.73;;
73593;SDS011;64760;53.404;23.498;2022-12-05T18:01:38;29.50;;;12.35;;
73593;SDS011;64760;53.404;23.498;2022-12-05T18:04:04;19.08;;;8.90;;
73593;SDS011;64760;53.404;23.498;2022-12-05T18:06:31;13.80;;;6.45;;
73593;SDS011;64760;53.404;23.498;2022-12-05T18:11:39;27.88;;;13.15;;
73593;SDS011;64760;53.404;23.498;2022-12-05T18:14:05;21.58;;;10.18;;
73593;SDS011;64760;53.404;23.498;2022-12-05T18:16:31;12.43;;;5.82;;
73593;SDS011;64760;53.404;23.498;2022-12-05T18:18:58;13.98;;;6.20;;
73593;SDS011;64760;53.404;23.498;2022-12-05T18:21:24;23.45;;;9.55;;
73593;SDS011;64760;53.404;23.498;2022-12-05T18:23:51;9.02;;;5.05;;
73593;SDS011;64760;53.404;23.498;2022-12-05T18:26:17;14.02;;;8.02;;
73593;SDS011;64760;53.404;23.498;2022-12-05T18:28:43;22.25;;;9.80;;
73593;SDS011;64760;53.404;23.498;2022-12-05T18:31:13;14.43;;;6.10;;
73593;SDS011;64760;53.404;23.498;2022-12-05T18:33:42;12.00;;;5.50;;
73593;SDS011;64760;53.404;23.498;2022-12-05T18:36:10;17.38;;;7.80;;
73593;SDS011;64760;53.404;23.498;2022-12-05T18:38:38;21.10;;;9.80;;
73593;SDS011;64760;53.404;23.498;2022-12-05T18:41:05;26.17;;;10.35;;
73593;SDS011;64760;53.404;23.498;2022-12-05T18:43:32;17.38;;;9.05;;
73593;SDS011;64760;53.404;23.498;2022-12-05T18:46:00;27.02;;;11.95;;
73593;SDS011;64760;53.404;23.498;2022-12-05T18:48:29;22.05;;;11.82;;
73593;SDS011;64760;53.404;23.498;2022-12-05T18:51:13;23.67;;;10.30;;
73593;SDS011;64760;53.404;23.498;2022-12-05T18:53:41;21.42;;;10.77;;
73593;SDS011;64760;53.404;23.498;2022-12-05T18:56:17;17.98;;;9.25;;
73593;SDS011;64760;53.404;23.498;2022-12-05T18:58:50;35.13;;;14.18;;
73593;SDS011;64760;53.404;23.498;2022-12-05T19:01:21;27.92;;;10.52;;
73593;SDS011;64760;53.404;23.498;2022-12-05T19:03:48;28.83;;;10.07;;
73593;SDS011;64760;53.404;23.498;2022-12-05T19:06:19;17.95;;;9.43;;
73593;SDS011;64760;53.404;23.498;2022-12-05T19:08:48;17.45;;;9.48;;
73593;SDS011;64760;53.404;23.498;2022-12-05T19:11:15;14.88;;;7.18;;
73593;SDS011;64760;53.404;23.498;2022-12-05T19:13:42;25.42;;;9.82;;
73593;SDS011;64760;53.404;23.498;2022-12-05T19:16:10;16.92;;;7.70;;
73593;SDS011;64760;53.404;23.498;2022-12-05T19:18:44;14.10;;;5.47;;